Time;durP1;ratioP1;P1;durP2;ratioP2;P2;SDS_P1;SDS_P2;PMS_P1;PMS_P2;Temp;Humidity;BMP_temperature;BMP_pressure;BME280_temperature;BME280_humidity;BME280_pressure;Samples;Min_cycle;Max_cycle;Signal;HPM_P1;HPM_P2
2021/05/18 00:00:56;;;;;;;18.13;11.45;;;;;;;;;;5079304;28;20622;-76
2021/05/18 00:03:22;;;;;;;20.83;10.45;;;;;;;;;;5060199;28;20177;-75
2021/05/18 00:05:53;;;;;;;18.00;10.68;;;;;;;;;;5068931;28;20168;-77
2021/05/18 00:08:22;;;;;;;16.65;9.57;;;;;;;;;;5075145;28;20208;-74
2021/05/18 00:13:35;;;;;;;13.75;9.00;;;;;;;;;;5068562;28;20234;-76
2021/05/18 00:16:01;;;;;;;12.65;9.35;;;;;;;;;;5064257;28;20169;-75
2021/05/18 00:18:27;;;;;;;9.90;7.75;;;;;;;;;;5063163;28;20208;-76
2021/05/18 00:20:54;;;;;;;13.98;8.35;;;;;;;;;;5055505;28;20177;-76
2021/05/18 00:23:20;;;;;;;15.68;9.95;;;;;;;;;;5072502;28;20184;-75
2021/05/18 00:25:46;;;;;;;13.32;9.13;;;;;;;;;;5062300;28;20398;-76
2021/05/18 00:28:12;;;;;;;12.15;9.13;;;;;;;;;;5063939;28;20253;-76
2021/05/18 00:30:40;;;;;;;12.52;8.57;;;;;;;;;;5071059;28;20199;-76
2021/05/18 00:33:11;;;;;;;13.02;8.15;;;;;;;;;;5057385;28;20705;-76
2021/05/18 00:35:37;;;;;;;12.77;7.80;;;;;;;;;;5061284;28;20556;-76
2021/05/18 00:38:04;;;;;;;14.60;7.80;;;;;;;;;;5087883;28;20186;-75
2021/05/18 00:40:30;;;;;;;12.27;8.48;;;;;;;;;;5072332;28;20227;-75
2021/05/18 00:42:56;;;;;;;9.43;6.90;;;;;;;;;;5078800;28;20199;-75
2021/05/18 00:45:36;;;;;;;8.98;6.15;;;;;;;;;;5061770;28;20633;-76
2021/05/18 00:48:03;;;;;;;12.13;6.60;;;;;;;;;;5070186;28;20200;-76
2021/05/18 00:50:29;;;;;;;10.93;7.07;;;;;;;;;;5058550;28;20562;-77
2021/05/18 00:52:55;;;;;;;10.57;6.47;;;;;;;;;;5087597;28;20266;-76
2021/05/18 00:55:37;;;;;;;12.98;7.05;;;;;;;;;;5071122;28;20221;-75
2021/05/18 01:00:48;;;;;;;11.52;7.50;;;;;;;;;;5068949;28;20266;-76
2021/05/18 01:03:16;;;;;;;13.18;7.38;;;;;;;;;;5060108;28;20181;-76
2021/05/18 01:08:27;;;;;;;13.90;7.95;;;;;;;;;;5054472;28;20227;-75
2021/05/18 01:10:53;;;;;;;11.45;8.50;;;;;;;;;;5062421;28;20223;-76
2021/05/18 01:13:19;;;;;;;9.60;8.10;;;;;;;;;;5062510;28;20172;-75
2021/05/18 01:15:45;;;;;;;15.38;8.05;;;;;;;;;;5075122;28;20211;-78
2021/05/18 01:18:11;;;;;;;14.63;8.68;;;;;;;;;;5068980;28;20185;-75
2021/05/18 01:20:41;;;;;;;15.35;8.63;;;;;;;;;;5065335;28;20673;-75
2021/05/18 01:23:07;;;;;;;14.23;8.00;;;;;;;;;;5057094;28;20204;-77
2021/05/18 01:25:33;;;;;;;10.10;8.52;;;;;;;;;;5072603;28;20180;-76
2021/05/18 01:27:59;;;;;;;12.73;8.20;;;;;;;;;;5066446;28;20232;-76
2021/05/18 01:30:25;;;;;;;10.23;7.65;;;;;;;;;;5074749;28;20226;-78
2021/05/18 01:32:51;;;;;;;12.32;8.52;;;;;;;;;;5063462;28;20599;-76
2021/05/18 01:35:17;;;;;;;11.13;8.30;;;;;;;;;;5068344;28;20260;-77
2021/05/18 01:37:44;;;;;;;15.07;8.52;;;;;;;;;;5060511;28;20631;-75
2021/05/18 01:42:46;;;;;;;12.93;8.98;;;;;;;;;;5065145;28;20211;-75
2021/05/18 01:45:13;;;;;;;10.70;8.77;;;;;;;;;;5067084;28;20245;-78
2021/05/18 01:47:41;;;;;;;11.80;8.95;;;;;;;;;;5075168;28;20195;-78
2021/05/18 01:50:08;;;;;;;11.55;8.52;;;;;;;;;;5061010;28;20193;-76
2021/05/18 01:52:34;;;;;;;10.70;8.25;;;;;;;;;;5073531;28;20171;-76
2021/05/18 01:55:00;;;;;;;14.00;9.40;;;;;;;;;;5086995;28;20176;-75
2021/05/18 01:57:27;;;;;;;11.90;8.75;;;;;;;;;;5076327;28;20184;-76
2021/05/18 01:59:53;;;;;;;16.63;10.40;;;;;;;;;;5054171;28;20196;-78
2021/05/18 02:02:19;;;;;;;13.23;9.50;;;;;;;;;;5071416;28;20207;-76
2021/05/18 02:04:48;;;;;;;13.18;9.35;;;;;;;;;;5065532;28;20176;-76
2021/05/18 02:07:16;;;;;;;12.35;10.23;;;;;;;;;;5053776;28;20657;-76
2021/05/18 02:09:42;;;;;;;13.02;9.75;;;;;;;;;;5078474;28;20291;-75
2021/05/18 02:12:08;;;;;;;10.73;9.45;;;;;;;;;;5061168;28;20233;-75
2021/05/18 02:14:36;;;;;;;13.52;9.45;;;;;;;;;;5073960;28;20181;-75
2021/05/18 02:25:07;;;;;;;13.18;7.72;;;;;;;;;;5072756;28;20229;-76
2021/05/18 02:27:34;;;;;;;10.80;8.57;;;;;;;;;;5064285;28;20673;-75
2021/05/18 02:30:00;;;;;;;10.52;7.72;;;;;;;;;;5056212;28;20193;-74
2021/05/18 02:32:27;;;;;;;10.80;7.45;;;;;;;;;;5070940;28;20199;-75
2021/05/18 02:34:53;;;;;;;8.25;7.30;;;;;;;;;;5063914;28;20550;-76
2021/05/18 02:37:19;;;;;;;10.35;7.80;;;;;;;;;;5080039;28;20244;-74
2021/05/18 02:39:45;;;;;;;14.95;7.80;;;;;;;;;;5053311;28;20208;-75
2021/05/18 02:42:11;;;;;;;10.55;6.75;;;;;;;;;;5077988;28;20183;-74
2021/05/18 02:50:00;;;;;;;8.65;6.57;;;;;;;;;;5052914;28;20330;-74
2021/05/18 02:52:27;;;;;;;10.52;6.90;;;;;;;;;;5081947;28;20212;-75
2021/05/18 02:54:55;;;;;;;10.75;6.80;;;;;;;;;;5079180;28;20172;-73
2021/05/18 02:57:36;;;;;;;7.38;6.00;;;;;;;;;;5075780;28;20176;-75
2021/05/18 03:00:05;;;;;;;9.77;5.70;;;;;;;;;;5053164;28;20228;-74
2021/05/18 03:02:31;;;;;;;21.48;6.72;;;;;;;;;;5063418;28;20180;-75
2021/05/18 03:04:57;;;;;;;6.90;5.65;;;;;;;;;;5071823;28;20195;-75
2021/05/18 03:07:23;;;;;;;7.45;5.80;;;;;;;;;;5072386;28;20207;-74
2021/05/18 03:09:49;;;;;;;6.93;5.70;;;;;;;;;;5060973;28;20188;-74
2021/05/18 03:12:15;;;;;;;6.05;4.90;;;;;;;;;;5052829;28;20424;-76
2021/05/18 03:14:41;;;;;;;6.55;4.55;;;;;;;;;;5068800;28;20169;-73
2021/05/18 03:17:07;;;;;;;8.65;5.10;;;;;;;;;;5068567;28;20526;-74
2021/05/18 03:19:33;;;;;;;9.20;5.32;;;;;;;;;;5073720;28;20199;-77
2021/05/18 03:21:59;;;;;;;9.40;5.78;;;;;;;;;;5070990;28;20181;-74
2021/05/18 03:24:25;;;;;;;8.77;5.10;;;;;;;;;;5059328;28;20181;-75
2021/05/18 03:26:51;;;;;;;6.25;4.72;;;;;;;;;;5068490;28;20209;-75
2021/05/18 03:29:33;;;;;;;8.88;5.25;;;;;;;;;;5059470;28;20231;-75
2021/05/18 03:34:44;;;;;;;5.50;4.57;;;;;;;;;;5068376;28;20591;-76
2021/05/18 03:37:20;;;;;;;6.40;4.18;;;;;;;;;;5064199;28;20545;-76
2021/05/18 03:39:48;;;;;;;11.25;5.38;;;;;;;;;;5058379;28;20213;-74
2021/05/18 03:42:17;;;;;;;6.22;4.03;;;;;;;;;;5053696;28;20208;-73
2021/05/18 03:44:53;;;;;;;11.30;5.03;;;;;;;;;;5076261;28;20180;-74
2021/05/18 03:53:02;;;;;;;6.95;5.40;;;;;;;;;;5070174;28;20185;-75
2021/05/18 04:03:57;;;;;;;11.98;5.95;;;;;;;;;;5057524;28;20234;-74
2021/05/18 04:12:05;;;;;;;7.53;6.13;;;;;;;;;;5074170;28;20191;-76
2021/05/18 04:17:16;;;;;;;8.73;6.25;;;;;;;;;;5076339;28;20230;-76
2021/05/18 04:19:48;;;;;;;13.52;8.10;;;;;;;;;;5072621;28;20200;-75
2021/05/18 04:22:33;;;;;;;10.35;6.43;;;;;;;;;;5070306;28;20185;-75
2021/05/18 04:25:22;;;;;;;10.55;6.65;;;;;;;;;;5062184;28;20527;-75
2021/05/18 04:38:56;;;;;;;11.52;7.50;;;;;;;;;;5060258;28;20234;-75
2021/05/18 05:00:13;;;;;;;10.82;7.40;;;;;;;;;;5068444;28;20237;-75
2021/05/18 05:15:36;;;;;;;9.73;7.53;;;;;;;;;;5064591;28;20196;-77
2021/05/18 05:18:03;;;;;;;10.25;7.07;;;;;;;;;;5065498;28;20218;-74
2021/05/18 05:20:30;;;;;;;10.77;6.95;;;;;;;;;;5079767;28;20200;-76
2021/05/18 05:22:56;;;;;;;14.13;8.82;;;;;;;;;;5058829;28;20188;-76
2021/05/18 05:25:22;;;;;;;9.73;7.45;;;;;;;;;;5065704;28;20189;-76
2021/05/18 05:27:48;;;;;;;10.65;7.13;;;;;;;;;;5065951;28;20623;-76
2021/05/18 05:30:14;;;;;;;11.50;8.53;;;;;;;;;;5076493;28;20290;-76
2021/05/18 05:32:40;;;;;;;12.52;7.45;;;;;;;;;;5065565;28;20433;-76
2021/05/18 05:35:06;;;;;;;9.07;7.70;;;;;;;;;;5054250;28;20181;-76
2021/05/18 05:37:32;;;;;;;8.65;7.75;;;;;;;;;;5063380;28;20426;-76
2021/05/18 05:39:58;;;;;;;12.23;7.70;;;;;;;;;;5054199;28;20220;-76
2021/05/18 05:42:25;;;;;;;10.27;7.47;;;;;;;;;;5061615;28;20441;-77
2021/05/18 05:44:51;;;;;;;8.40;6.55;;;;;;;;;;5070305;28;20187;-75
2021/05/18 05:47:18;;;;;;;14.45;8.43;;;;;;;;;;5059099;28;20193;-76
2021/05/18 05:49:44;;;;;;;11.15;8.48;;;;;;;;;;5076877;28;20199;-78
2021/05/18 05:52:16;;;;;;;11.63;7.80;;;;;;;;;;5074238;28;20183;-76
2021/05/18 05:54:43;;;;;;;9.98;8.30;;;;;;;;;;5082754;28;20211;-78
2021/05/18 05:57:09;;;;;;;17.23;9.05;;;;;;;;;;5062104;28;20208;-76
2021/05/18 05:59:35;;;;;;;14.05;8.15;;;;;;;;;;5063352;28;20554;-77
2021/05/18 06:02:03;;;;;;;12.20;7.75;;;;;;;;;;5071682;28;20180;-77
2021/05/18 06:04:29;;;;;;;8.82;7.43;;;;;;;;;;5061505;28;20175;-75
2021/05/18 06:06:55;;;;;;;9.10;7.45;;;;;;;;;;5053538;28;20321;-75
2021/05/18 06:09:22;;;;;;;12.63;7.50;;;;;;;;;;5069075;28;20231;-76
2021/05/18 06:11:56;;;;;;;11.43;6.95;;;;;;;;;;5068425;28;20252;-74
2021/05/18 06:17:16;;;;;;;13.10;7.57;;;;;;;;;;5070201;28;20278;-75
2021/05/18 06:42:01;;;;;;;7.75;6.50;;;;;;;;;;5058817;28;20588;-77
2021/05/18 06:47:32;;;;;;;9.63;7.10;;;;;;;;;;5059459;28;20211;-78
2021/05/18 06:50:32;;;;;;;11.68;7.68;;;;;;;;;;5049254;28;20554;-80
2021/05/18 06:52:51;;;;;;;9.80;7.85;;;;;;;;;;5047796;28;20188;-77
2021/05/18 06:55:21;;;;;;;8.63;7.70;;;;;;;;;;5049084;28;20184;-78
2021/05/18 06:57:49;;;;;;;16.17;8.68;;;;;;;;;;5049134;28;20961;-77
2021/05/18 07:00:20;;;;;;;9.90;7.72;;;;;;;;;;5049058;28;20240;-77
2021/05/18 07:02:47;;;;;;;11.43;7.32;;;;;;;;;;5049298;28;20262;-78
2021/05/18 07:07:59;;;;;;;10.70;8.25;;;;;;;;;;5052083;28;20353;-78
2021/05/18 07:10:25;;;;;;;13.57;9.25;;;;;;;;;;5064960;28;20614;-77
2021/05/18 07:12:51;;;;;;;11.60;8.77;;;;;;;;;;5054630;28;20172;-77
2021/05/18 07:15:18;;;;;;;10.07;7.80;;;;;;;;;;5049363;28;20550;-77
2021/05/18 07:17:44;;;;;;;12.45;9.70;;;;;;;;;;5049226;28;20455;-76
2021/05/18 07:20:10;;;;;;;9.90;8.90;;;;;;;;;;5067953;28;20211;-79
2021/05/18 07:22:36;;;;;;;12.02;9.38;;;;;;;;;;5059666;28;20957;-78
2021/05/18 07:25:03;;;;;;;11.82;9.95;;;;;;;;;;5052821;28;20180;-78
2021/05/18 07:27:29;;;;;;;10.23;8.85;;;;;;;;;;5064759;28;20631;-77
2021/05/18 07:29:55;;;;;;;9.70;8.73;;;;;;;;;;5064045;28;20243;-76
2021/05/18 07:32:21;;;;;;;10.43;9.32;;;;;;;;;;5059367;28;20240;-77
2021/05/18 07:34:48;;;;;;;10.82;9.73;;;;;;;;;;5060687;28;20203;-76
2021/05/18 07:37:14;;;;;;;11.27;9.60;;;;;;;;;;5052952;28;20187;-78
2021/05/18 07:39:40;;;;;;;11.63;10.05;;;;;;;;;;5058851;28;20699;-78
2021/05/18 07:42:06;;;;;;;10.88;9.77;;;;;;;;;;5064352;28;20196;-76
2021/05/18 07:44:32;;;;;;;13.48;9.98;;;;;;;;;;5065218;28;20181;-76
2021/05/18 07:46:58;;;;;;;10.60;9.50;;;;;;;;;;5062271;28;20196;-77
2021/05/18 07:49:34;;;;;;;11.18;9.82;;;;;;;;;;5057195;28;20204;-77
2021/05/18 08:05:32;;;;;;;9.30;8.43;;;;;;;;;;5061335;28;20558;-77
2021/05/18 08:07:58;;;;;;;10.45;8.32;;;;;;;;;;5055888;28;20219;-76
2021/05/18 08:10:33;;;;;;;8.10;7.40;;;;;;;;;;5066038;28;20285;-78
2021/05/18 08:12:59;;;;;;;7.80;7.00;;;;;;;;;;5052120;28;20187;-78
2021/05/18 08:18:07;;;;;;;8.85;7.85;;;;;;;;;;5062437;28;20988;-76
2021/05/18 09:01:54;;;;;;;6.40;5.57;;;;;;;;;;5058004;28;20512;-76
2021/05/18 10:21:38;;;;;;;4.53;4.18;;;;;;;;;;5053088;28;20261;-76
2021/05/18 10:35:51;;;;;;;4.45;3.70;;;;;;;;;;5058126;28;20426;-76
2021/05/18 10:38:45;;;;;;;4.40;3.80;;;;;;;;;;5049528;28;20176;-76
2021/05/18 10:41:17;;;;;;;4.40;3.70;;;;;;;;;;5054924;28;20443;-78
2021/05/18 10:43:44;;;;;;;4.60;4.10;;;;;;;;;;5050238;28;20541;-76
2021/05/18 10:46:17;;;;;;;4.70;3.63;;;;;;;;;;5062589;28;20419;-75
2021/05/18 10:48:58;;;;;;;4.27;3.87;;;;;;;;;;5049459;28;20464;-78
2021/05/18 10:51:43;;;;;;;17.40;15.53;;;;;;;;;;5062616;28;20419;-76
2021/05/18 10:54:26;;;;;;;4.13;3.70;;;;;;;;;;5064075;28;20804;-76
2021/05/18 10:56:59;;;;;;;3.93;3.60;;;;;;;;;;5053253;28;20931;-76
2021/05/18 10:59:29;;;;;;;5.20;3.60;;;;;;;;;;5054089;28;21172;-75
2021/05/18 11:02:03;;;;;;;4.47;4.07;;;;;;;;;;5053661;28;20447;-75
2021/05/18 11:04:30;;;;;;;3.90;3.50;;;;;;;;;;5054646;28;20422;-76
2021/05/18 11:06:57;;;;;;;4.40;3.67;;;;;;;;;;5055242;28;20444;-77
2021/05/18 11:09:24;;;;;;;4.03;3.70;;;;;;;;;;5063455;28;20608;-76
2021/05/18 11:11:59;;;;;;;5.03;4.10;;;;;;;;;;5051871;28;20623;-75
2021/05/18 11:14:33;;;;;;;4.85;3.90;;;;;;;;;;5048840;28;20250;-75
2021/05/18 11:17:14;;;;;;;5.57;4.60;;;;;;;;;;5057637;28;20263;-75
2021/05/18 11:19:47;;;;;;;4.15;3.55;;;;;;;;;;5054926;28;20867;-75
2021/05/18 11:22:15;;;;;;;4.95;4.30;;;;;;;;;;5068559;28;20180;-75
2021/05/18 11:24:50;;;;;;;4.65;4.07;;;;;;;;;;5052120;28;20266;-76
2021/05/18 11:27:29;;;;;;;4.88;3.65;;;;;;;;;;5056791;28;20191;-76
2021/05/18 11:29:55;;;;;;;4.40;4.10;;;;;;;;;;5064738;28;20206;-73
2021/05/18 11:32:21;;;;;;;4.40;4.03;;;;;;;;;;5073591;28;20182;-76
2021/05/18 11:34:55;;;;;;;5.53;4.35;;;;;;;;;;5049408;28;20230;-74
2021/05/18 11:37:21;;;;;;;4.38;3.97;;;;;;;;;;5053490;28;20184;-76
2021/05/18 11:39:47;;;;;;;5.95;4.10;;;;;;;;;;5048756;28;20239;-76
2021/05/18 11:42:26;;;;;;;4.17;3.80;;;;;;;;;;5047579;28;20223;-74
2021/05/18 11:45:03;;;;;;;4.17;3.60;;;;;;;;;;5049125;28;20418;-78
2021/05/18 11:47:29;;;;;;;4.30;3.97;;;;;;;;;;5059902;28;20824;-78
2021/05/18 11:49:55;;;;;;;5.00;4.00;;;;;;;;;;5051567;28;20439;-77
2021/05/18 11:52:21;;;;;;;6.40;5.80;;;;;;;;;;5064021;28;20421;-77
2021/05/18 11:54:47;;;;;;;6.90;6.40;;;;;;;;;;5066051;28;20418;-79
2021/05/18 11:57:13;;;;;;;7.23;6.63;;;;;;;;;;5063440;28;20432;-78
2021/05/18 11:59:40;;;;;;;7.07;6.47;;;;;;;;;;5063598;28;20458;-78
2021/05/18 12:02:06;;;;;;;6.20;5.70;;;;;;;;;;5055408;28;20418;-78
2021/05/18 12:04:36;;;;;;;5.83;5.30;;;;;;;;;;5057437;28;20478;-78
2021/05/18 12:07:07;;;;;;;4.97;4.57;;;;;;;;;;5048583;28;20449;-78
2021/05/18 12:09:34;;;;;;;5.03;4.63;;;;;;;;;;5065135;28;20851;-78
2021/05/18 12:12:04;;;;;;;5.00;4.60;;;;;;;;;;5051744;28;20930;-77
2021/05/18 12:14:31;;;;;;;3.80;3.50;;;;;;;;;;5063632;28;20453;-76
2021/05/18 12:16:58;;;;;;;3.67;3.27;;;;;;;;;;5059437;28;20431;-78
2021/05/18 12:19:24;;;;;;;2.93;2.73;;;;;;;;;;5067725;28;20942;-78
2021/05/18 12:21:54;;;;;;;3.90;2.60;;;;;;;;;;5067802;28;20423;-78
2021/05/18 12:24:21;;;;;;;3.47;3.17;;;;;;;;;;5058332;28;20439;-77
2021/05/18 12:27:08;;;;;;;3.30;3.00;;;;;;;;;;5064740;28;20439;-77
2021/05/18 12:29:35;;;;;;;2.77;2.57;;;;;;;;;;5060150;28;20490;-77
2021/05/18 12:32:20;;;;;;;2.50;2.30;;;;;;;;;;5059153;28;20430;-78
2021/05/18 12:34:47;;;;;;;2.60;2.37;;;;;;;;;;5063683;28;20415;-76
2021/05/18 12:37:14;;;;;;;3.67;2.70;;;;;;;;;;5051958;28;21199;-77
2021/05/18 12:39:44;;;;;;;3.43;2.70;;;;;;;;;;5052231;28;20782;-78
2021/05/18 12:42:15;;;;;;;3.00;2.80;;;;;;;;;;5056201;28;20431;-77
2021/05/18 12:44:52;;;;;;;4.33;2.63;;;;;;;;;;5058531;28;21051;-78
2021/05/18 12:47:25;;;;;;;3.70;3.40;;;;;;;;;;5055705;28;20454;-77
2021/05/18 12:49:51;;;;;;;2.90;2.50;;;;;;;;;;5055398;28;20447;-79
2021/05/18 12:52:17;;;;;;;3.27;2.57;;;;;;;;;;5051802;28;20911;-78
2021/05/18 12:54:51;;;;;;;2.90;2.50;;;;;;;;;;5051455;28;20856;-78
2021/05/18 12:57:27;;;;;;;2.63;2.43;;;;;;;;;;5051811;28;20522;-78
2021/05/18 13:00:13;;;;;;;3.00;2.70;;;;;;;;;;5064184;28;20485;-77
2021/05/18 13:02:41;;;;;;;3.87;3.10;;;;;;;;;;5068497;28;20820;-78
2021/05/18 13:05:09;;;;;;;3.50;3.20;;;;;;;;;;5069398;28;20425;-77
2021/05/18 13:07:36;;;;;;;3.20;2.70;;;;;;;;;;5069005;28;20459;-77
2021/05/18 13:10:26;;;;;;;3.37;2.90;;;;;;;;;;5070634;28;20484;-77
2021/05/18 13:13:01;;;;;;;3.57;3.27;;;;;;;;;;5058580;28;20521;-77
2021/05/18 13:15:27;;;;;;;3.80;3.30;;;;;;;;;;5052480;28;20502;-77
2021/05/18 13:18:02;;;;;;;3.30;3.00;;;;;;;;;;5054201;28;20432;-76
2021/05/18 13:20:39;;;;;;;3.20;2.47;;;;;;;;;;5059453;28;20444;-78
2021/05/18 13:23:08;;;;;;;2.40;2.10;;;;;;;;;;5063062;28;20441;-77
2021/05/18 13:28:20;;;;;;;4.07;3.30;;;;;;;;;;5062704;28;20462;-79
2021/05/18 13:30:47;;;;;;;3.90;3.60;;;;;;;;;;5049764;28;20411;-76
2021/05/18 13:33:13;;;;;;;4.57;4.27;;;;;;;;;;5062667;28;20173;-80
2021/05/18 13:35:39;;;;;;;3.80;3.50;;;;;;;;;;5050733;28;20808;-77
2021/05/18 13:38:05;;;;;;;4.13;2.90;;;;;;;;;;5061373;28;20284;-77
2021/05/18 13:40:31;;;;;;;3.00;2.70;;;;;;;;;;5054541;28;20606;-78
2021/05/18 13:42:57;;;;;;;2.72;2.53;;;;;;;;;;5061542;28;20181;-77
2021/05/18 13:45:28;;;;;;;5.43;3.40;;;;;;;;;;5057571;28;20241;-78
2021/05/18 13:47:55;;;;;;;3.55;3.25;;;;;;;;;;5050589;28;20293;-77
2021/05/18 13:50:24;;;;;;;4.53;4.22;;;;;;;;;;5050843;28;20236;-80
2021/05/18 13:52:50;;;;;;;4.45;4.05;;;;;;;;;;5050467;28;20185;-77
2021/05/18 13:55:17;;;;;;;3.55;2.80;;;;;;;;;;5062754;28;20180;-77
2021/05/18 13:57:43;;;;;;;2.78;2.50;;;;;;;;;;5051418;28;20199;-78
2021/05/18 14:00:10;;;;;;;2.40;2.20;;;;;;;;;;5064787;28;20211;-77
2021/05/18 14:02:37;;;;;;;3.70;2.00;;;;;;;;;;5060025;28;20196;-78
2021/05/18 14:05:05;;;;;;;2.13;1.77;;;;;;;;;;5049961;28;20502;-77
2021/05/18 14:10:06;;;;;;;3.00;1.80;;;;;;;;;;5070100;28;20520;-78
2021/05/18 14:12:32;;;;;;;3.60;3.30;;;;;;;;;;5061891;28;20426;-78
2021/05/18 14:14:58;;;;;;;3.87;3.57;;;;;;;;;;5051490;28;20433;-79
2021/05/18 14:17:24;;;;;;;3.27;2.30;;;;;;;;;;5053750;28;20471;-79
2021/05/18 14:19:50;;;;;;;3.20;2.40;;;;;;;;;;5052959;28;20446;-78
2021/05/18 14:22:16;;;;;;;3.87;3.10;;;;;;;;;;5070582;28;20532;-79
2021/05/18 14:25:24;;;;;;;3.60;3.30;;;;;;;;;;5066462;28;20459;-78
2021/05/18 14:27:32;;;;;;;2.70;2.13;;;;;;;;;;5055667;28;20510;-78
2021/05/18 14:29:58;;;;;;;11.63;8.87;;;;;;;;;;5056191;28;20456;-78
2021/05/18 14:32:24;;;;;;;2.93;2.67;;;;;;;;;;5068852;28;20923;-79
2021/05/18 14:34:52;;;;;;;2.80;2.53;;;;;;;;;;5049785;28;20526;-79
2021/05/18 14:37:18;;;;;;;3.30;3.00;;;;;;;;;;5062788;28;20913;-79
2021/05/18 14:45:07;;;;;;;2.83;2.07;;;;;;;;;;5049542;28;20443;-78
2021/05/18 14:55:50;;;;;;;2.90;2.30;;;;;;;;;;5050097;28;20413;-76
2021/05/18 14:58:16;;;;;;;3.20;2.50;;;;;;;;;;5057688;28;20413;-77
2021/05/18 15:00:42;;;;;;;3.40;3.10;;;;;;;;;;5061418;28;20456;-77
2021/05/18 15:03:09;;;;;;;2.50;2.13;;;;;;;;;;5049233;28;20903;-76
2021/05/18 15:05:35;;;;;;;4.50;4.10;;;;;;;;;;5058178;28;20430;-77
2021/05/18 15:08:02;;;;;;;3.27;2.80;;;;;;;;;;5053558;28;20479;-77
2021/05/18 15:10:28;;;;;;;3.17;2.27;;;;;;;;;;5062477;28;20502;-78
2021/05/18 15:12:55;;;;;;;4.07;2.43;;;;;;;;;;5054574;28;20428;-77
2021/05/18 15:15:21;;;;;;;2.30;2.07;;;;;;;;;;5055957;28;20495;-78
2021/05/18 15:17:47;;;;;;;3.10;2.40;;;;;;;;;;5057854;28;20425;-78
2021/05/18 15:20:14;;;;;;;2.60;2.40;;;;;;;;;;5074336;28;20442;-77
2021/05/18 15:22:40;;;;;;;3.37;2.60;;;;;;;;;;5072067;28;21226;-78
2021/05/18 15:25:09;;;;;;;4.00;2.50;;;;;;;;;;5049219;28;20416;-77
2021/05/18 15:27:35;;;;;;;4.83;4.33;;;;;;;;;;5056849;28;20470;-77
2021/05/18 15:30:01;;;;;;;8.83;7.60;;;;;;;;;;5049158;28;20519;-77
2021/05/18 15:32:27;;;;;;;3.33;3.03;;;;;;;;;;5062116;28;20847;-79
2021/05/18 15:34:53;;;;;;;2.80;2.60;;;;;;;;;;5055825;28;20457;-77
2021/05/18 15:37:19;;;;;;;5.20;4.37;;;;;;;;;;5059118;28;20529;-77
2021/05/18 15:39:45;;;;;;;3.10;2.80;;;;;;;;;;5054556;28;20448;-76
2021/05/18 15:42:11;;;;;;;3.20;2.90;;;;;;;;;;5062497;28;20778;-73
2021/05/18 15:44:37;;;;;;;3.50;3.00;;;;;;;;;;5056766;28;20823;-74
2021/05/18 15:47:06;;;;;;;4.13;3.60;;;;;;;;;;5058716;28;20869;-76
2021/05/18 15:49:33;;;;;;;4.03;3.57;;;;;;;;;;5058215;28;20441;-74
2021/05/18 15:51:59;;;;;;;3.97;3.67;;;;;;;;;;5058847;28;20407;-74
2021/05/18 15:54:26;;;;;;;6.30;3.33;;;;;;;;;;5056167;28;20428;-74
2021/05/18 15:56:52;;;;;;;4.10;3.37;;;;;;;;;;5066604;28;20430;-75
2021/05/18 15:59:18;;;;;;;3.70;3.40;;;;;;;;;;5067205;28;20485;-75
2021/05/18 16:01:44;;;;;;;3.53;3.23;;;;;;;;;;5070319;28;20434;-76
2021/05/18 16:04:11;;;;;;;3.90;3.60;;;;;;;;;;5052454;28;20446;-74
2021/05/18 16:06:44;;;;;;;4.83;4.43;;;;;;;;;;5066154;28;20939;-73
2021/05/18 16:09:11;;;;;;;5.67;5.17;;;;;;;;;;5066097;28;20474;-74
2021/05/18 16:11:37;;;;;;;4.70;4.30;;;;;;;;;;5067411;28;20902;-75
2021/05/18 16:14:04;;;;;;;7.30;4.40;;;;;;;;;;5059051;28;20411;-74
2021/05/18 16:16:30;;;;;;;4.38;3.97;;;;;;;;;;5065786;28;20180;-75
2021/05/18 16:18:56;;;;;;;4.30;3.90;;;;;;;;;;5052092;28;20696;-73
2021/05/18 16:21:24;;;;;;;5.47;4.32;;;;;;;;;;5063203;28;20242;-73
2021/05/18 16:23:51;;;;;;;4.55;4.15;;;;;;;;;;5072098;28;20210;-74
2021/05/18 16:26:18;;;;;;;4.75;4.35;;;;;;;;;;5069520;28;20958;-74
2021/05/18 16:28:45;;;;;;;5.57;4.75;;;;;;;;;;5067572;28;20218;-74
2021/05/18 16:31:12;;;;;;;5.30;4.90;;;;;;;;;;5064037;28;20191;-75
2021/05/18 16:33:39;;;;;;;6.95;5.20;;;;;;;;;;5058240;28;20206;-72
2021/05/18 16:36:06;;;;;;;6.20;5.70;;;;;;;;;;5067984;28;20188;-73
2021/05/18 16:38:32;;;;;;;5.75;5.15;;;;;;;;;;5062229;28;20184;-75
2021/05/18 16:40:58;;;;;;;5.72;5.22;;;;;;;;;;5054678;28;20188;-75
2021/05/18 16:43:25;;;;;;;5.88;5.40;;;;;;;;;;5069595;28;20184;-74
2021/05/18 16:45:52;;;;;;;7.22;6.53;;;;;;;;;;5060680;28;20180;-74
2021/05/18 16:48:18;;;;;;;6.00;5.50;;;;;;;;;;5064652;28;20200;-75
2021/05/18 16:50:44;;;;;;;5.40;4.68;;;;;;;;;;5067922;28;20311;-73
2021/05/18 16:53:11;;;;;;;5.10;4.70;;;;;;;;;;5060906;28;20177;-75
2021/05/18 16:55:37;;;;;;;4.60;4.20;;;;;;;;;;5053268;28;20204;-75
2021/05/18 16:58:04;;;;;;;5.22;4.72;;;;;;;;;;5060903;28;20192;-75
2021/05/18 17:00:30;;;;;;;5.35;4.85;;;;;;;;;;5053962;28;20209;-75
2021/05/18 17:02:56;;;;;;;5.82;5.32;;;;;;;;;;5051286;28;20918;-74
2021/05/18 17:05:25;;;;;;;5.63;5.10;;;;;;;;;;5063744;28;20200;-73
2021/05/18 17:07:52;;;;;;;5.30;4.80;;;;;;;;;;5054507;28;20218;-74
2021/05/18 17:10:20;;;;;;;5.68;4.95;;;;;;;;;;5066379;28;20257;-74
2021/05/18 17:12:46;;;;;;;5.22;4.82;;;;;;;;;;5051374;28;20177;-74
2021/05/18 17:15:12;;;;;;;5.93;5.43;;;;;;;;;;5062279;28;20549;-73
2021/05/18 17:17:38;;;;;;;5.38;4.90;;;;;;;;;;5067876;28;20824;-75
2021/05/18 17:20:05;;;;;;;5.53;5.13;;;;;;;;;;5063129;28;20209;-75
2021/05/18 17:22:31;;;;;;;6.22;5.63;;;;;;;;;;5067489;28;20229;-74
2021/05/18 17:24:57;;;;;;;5.40;5.00;;;;;;;;;;5049606;28;20270;-73
2021/05/18 17:27:23;;;;;;;5.82;5.25;;;;;;;;;;5058070;28;20418;-74
2021/05/18 17:29:49;;;;;;;7.18;5.55;;;;;;;;;;5058735;28;20279;-74
2021/05/18 17:32:15;;;;;;;5.83;5.30;;;;;;;;;;5056561;28;20590;-74
2021/05/18 17:34:41;;;;;;;15.18;13.07;;;;;;;;;;5051239;28;20423;-75
2021/05/18 17:37:10;;;;;;;5.70;5.20;;;;;;;;;;5068390;28;20672;-75
2021/05/18 17:39:37;;;;;;;5.18;4.68;;;;;;;;;;5049488;28;20209;-75
2021/05/18 17:42:03;;;;;;;5.97;5.37;;;;;;;;;;5056331;28;20239;-76
2021/05/18 17:44:30;;;;;;;5.80;5.30;;;;;;;;;;5054361;28;21088;-75
2021/05/18 17:46:56;;;;;;;5.93;5.43;;;;;;;;;;5064776;28;20450;-74
2021/05/18 17:49:22;;;;;;;6.07;5.57;;;;;;;;;;5052415;28;20517;-75
2021/05/18 17:51:49;;;;;;;5.73;5.20;;;;;;;;;;5065097;28;20407;-73
2021/05/18 17:54:16;;;;;;;6.13;5.53;;;;;;;;;;5067896;28;20422;-74
2021/05/18 17:56:42;;;;;;;6.03;5.53;;;;;;;;;;5068023;28;20410;-76
2021/05/18 17:59:08;;;;;;;5.63;5.13;;;;;;;;;;5068884;28;20452;-74
2021/05/18 18:01:34;;;;;;;6.40;5.43;;;;;;;;;;5082075;28;20421;-73
2021/05/18 18:04:01;;;;;;;6.43;5.93;;;;;;;;;;5070431;28;20483;-74
2021/05/18 18:06:28;;;;;;;5.18;4.72;;;;;;;;;;5066474;28;20794;-74
2021/05/18 18:08:56;;;;;;;5.95;5.45;;;;;;;;;;5066230;28;20389;-74
2021/05/18 18:11:23;;;;;;;6.00;5.50;;;;;;;;;;5072241;28;20525;-74
2021/05/18 18:13:49;;;;;;;5.87;5.40;;;;;;;;;;5056008;28;21054;-74
2021/05/18 18:16:15;;;;;;;5.00;4.60;;;;;;;;;;5061430;28;20446;-74
2021/05/18 18:18:42;;;;;;;6.00;5.50;;;;;;;;;;5064064;28;20303;-74
2021/05/18 18:21:08;;;;;;;5.72;5.22;;;;;;;;;;5065770;28;20258;-74
2021/05/18 18:23:35;;;;;;;6.00;5.50;;;;;;;;;;5069084;28;20593;-74
2021/05/18 18:26:01;;;;;;;5.35;4.95;;;;;;;;;;5069853;28;20233;-75
2021/05/18 18:28:27;;;;;;;5.22;4.82;;;;;;;;;;5063450;28;20189;-76
2021/05/18 18:30:53;;;;;;;4.85;4.35;;;;;;;;;;5049747;28;20173;-75
2021/05/18 18:33:21;;;;;;;5.18;4.78;;;;;;;;;;5049556;28;20169;-76
2021/05/18 18:35:51;;;;;;;5.38;4.97;;;;;;;;;;5049900;28;20266;-76
2021/05/18 18:38:17;;;;;;;6.32;5.82;;;;;;;;;;5054516;28;20271;-76
2021/05/18 18:40:43;;;;;;;5.88;5.38;;;;;;;;;;5055935;28;20240;-77
2021/05/18 18:43:10;;;;;;;6.18;5.57;;;;;;;;;;5052526;28;21163;-75
2021/05/18 18:45:36;;;;;;;6.30;5.80;;;;;;;;;;5056278;28;20472;-75
2021/05/18 18:48:04;;;;;;;6.00;5.50;;;;;;;;;;5069346;28;20208;-75
2021/05/18 18:50:34;;;;;;;7.45;5.18;;;;;;;;;;5062348;28;20231;-76
2021/05/18 18:55:29;;;;;;;6.15;5.65;;;;;;;;;;5065408;28;20187;-75
2021/05/18 18:57:55;;;;;;;5.80;5.30;;;;;;;;;;5064471;28;20185;-74
2021/05/18 19:00:22;;;;;;;5.45;4.78;;;;;;;;;;5068039;28;20231;-75
2021/05/18 19:13:08;;;;;;;7.70;6.70;;;;;;;;;;5053943;28;20273;-74
2021/05/18 19:15:35;;;;;;;7.10;6.50;;;;;;;;;;5068392;28;20535;-74
2021/05/18 19:18:01;;;;;;;7.05;6.55;;;;;;;;;;5051699;28;20173;-75
2021/05/18 19:20:27;;;;;;;7.00;6.40;;;;;;;;;;5051122;28;20201;-74
2021/05/18 19:22:53;;;;;;;7.70;6.88;;;;;;;;;;5051853;28;20235;-75
2021/05/18 19:25:20;;;;;;;7.50;6.90;;;;;;;;;;5049372;28;20200;-75
2021/05/18 19:27:48;;;;;;;7.78;7.05;;;;;;;;;;5051950;28;20212;-75
2021/05/18 19:30:16;;;;;;;6.50;6.00;;;;;;;;;;5049280;28;20291;-76
2021/05/18 19:32:42;;;;;;;7.15;6.55;;;;;;;;;;5049644;28;20181;-74
2021/05/18 19:35:16;;;;;;;10.07;8.70;;;;;;;;;;5049242;28;20180;-75
2021/05/18 19:43:19;;;;;;;8.30;7.50;;;;;;;;;;5048668;28;20222;-74
2021/05/18 19:48:30;;;;;;;8.38;7.57;;;;;;;;;;5062754;28;20211;-75
2021/05/18 19:50:56;;;;;;;9.48;8.45;;;;;;;;;;5061713;28;20173;-77
2021/05/18 19:53:32;;;;;;;9.77;8.77;;;;;;;;;;5061866;28;20706;-75